createdAt,value
2023-03-11T00:01:30.994Z,11.70
2023-03-11T00:04:00.895Z,11.20
2023-03-11T00:06:28.376Z,11.05
2023-03-11T00:08:56.057Z,10.93
2023-03-11T00:11:23.819Z,10.93
2023-03-11T00:13:51.062Z,9.70
2023-03-11T00:16:18.577Z,10.30
2023-03-11T00:18:46.095Z,9.65
2023-03-11T00:21:18.472Z,10.70
2023-03-11T00:23:46.397Z,10.88
2023-03-11T00:26:14.684Z,10.35
2023-03-11T00:28:42.256Z,10.05
2023-03-11T00:31:11.055Z,9.73
2023-03-11T00:33:41.935Z,9.38
2023-03-11T00:36:25.583Z,8.05
2023-03-11T00:38:52.944Z,8.50
2023-03-11T00:41:20.567Z,8.50
2023-03-11T00:43:50.671Z,8.18
2023-03-11T00:46:18.648Z,8.70
2023-03-11T00:48:46.565Z,8.02
2023-03-11T00:51:16.109Z,9.07
2023-03-11T00:53:43.535Z,8.05
2023-03-11T00:56:13.318Z,9.27
2023-03-11T00:58:41.498Z,9.25
2023-03-11T01:01:11.289Z,9.07
2023-03-11T01:03:44.594Z,8.85
2023-03-11T01:06:14.445Z,8.43
2023-03-11T01:08:42.427Z,8.98
2023-03-11T01:11:12.327Z,7.75
2023-03-11T01:13:40.568Z,8.27
2023-03-11T01:16:09.472Z,7.82
2023-03-11T01:18:36.792Z,8.73
2023-03-11T01:21:04.650Z,8.52
2023-03-11T01:23:32.858Z,8.30
2023-03-11T01:26:00.304Z,8.63
2023-03-11T01:28:27.779Z,7.97
2023-03-11T01:30:55.591Z,8.18
2023-03-11T01:33:22.868Z,7.97
2023-03-11T01:35:52.714Z,7.20
2023-03-11T01:38:20.444Z,7.85
2023-03-11T01:40:50.431Z,7.93
2023-03-11T01:43:59.308Z,8.68
2023-03-11T01:46:29.157Z,8.75
2023-03-11T01:49:02.499Z,9.75
2023-03-11T01:51:36.198Z,10.93
2023-03-11T01:54:14.011Z,10.10
2023-03-11T01:56:42.491Z,9.80
2023-03-11T01:59:14.456Z,9.38
2023-03-11T02:01:59.265Z,9.30
2023-03-11T02:04:28.740Z,10.60
2023-03-11T02:06:59.122Z,9.93
2023-03-11T02:09:27.181Z,9.68
2023-03-11T02:11:55.071Z,10.13
2023-03-11T02:14:22.301Z,10.18
2023-03-11T02:16:49.563Z,9.48
2023-03-11T02:19:41.765Z,9.13
2023-03-11T02:22:10.679Z,9.90
2023-03-11T02:24:41.582Z,9.70
2023-03-11T02:27:10.832Z,8.93
2023-03-11T02:29:38.398Z,9.25
2023-03-11T02:32:09.034Z,8.77
2023-03-11T02:34:39.240Z,8.43
2023-03-11T02:37:12.567Z,9.38
2023-03-11T02:39:42.870Z,8.05
2023-03-11T02:42:18.735Z,8.20
2023-03-11T02:44:49.947Z,7.93
2023-03-11T02:47:19.665Z,8.07
2023-03-11T02:49:47.725Z,8.15
2023-03-11T02:52:15.302Z,7.65
2023-03-11T02:54:42.747Z,7.18
2023-03-11T02:57:12.679Z,6.63
2023-03-11T02:59:40.046Z,6.30
2023-03-11T03:02:07.500Z,6.22
2023-03-11T03:04:34.855Z,6.40
2023-03-11T03:07:02.306Z,5.90
2023-03-11T03:09:29.977Z,5.53
2023-03-11T03:11:57.351Z,5.65
2023-03-11T03:14:24.679Z,4.90
2023-03-11T03:16:52.253Z,5.10
2023-03-11T03:19:19.878Z,4.82
2023-03-11T03:21:47.516Z,4.97
2023-03-11T03:24:16.054Z,4.60
2023-03-11T03:26:43.402Z,4.95
2023-03-11T03:29:10.547Z,4.28
2023-03-11T03:31:39.130Z,3.97
2023-03-11T03:34:06.363Z,3.70
2023-03-11T03:36:33.806Z,3.97
2023-03-11T03:39:01.850Z,3.60
2023-03-11T03:41:29.731Z,3.80
2023-03-11T03:43:57.634Z,3.60
2023-03-11T03:46:25.328Z,3.60
2023-03-11T03:48:52.756Z,3.80
2023-03-11T03:51:22.943Z,3.70
2023-03-11T03:53:50.946Z,3.40
2023-03-11T03:56:19.211Z,3.47
2023-03-11T03:58:46.869Z,3.50
2023-03-11T04:01:16.604Z,3.60
2023-03-11T04:03:44.629Z,3.95
2023-03-11T04:06:30.483Z,4.30
2023-03-11T04:08:57.917Z,4.63
2023-03-11T04:11:26.625Z,4.90
2023-03-11T04:13:56.226Z,4.53
2023-03-11T04:16:27.483Z,3.65
2023-03-11T04:18:55.853Z,3.75
2023-03-11T04:21:23.420Z,5.10
2023-03-11T04:23:50.855Z,3.58
2023-03-11T04:26:18.512Z,3.97
2023-03-11T04:28:46.407Z,3.03
2023-03-11T04:31:14.288Z,2.92
2023-03-11T04:33:42.468Z,2.83
2023-03-11T04:36:14.541Z,2.83
2023-03-11T04:38:42.014Z,3.00
2023-03-11T04:41:09.510Z,2.67
2023-03-11T04:43:36.891Z,3.00
2023-03-11T04:46:04.543Z,3.17
2023-03-11T04:48:32.738Z,3.08
2023-03-11T04:51:00.153Z,3.00
2023-03-11T04:53:27.618Z,3.00
2023-03-11T04:55:57.790Z,3.30
2023-03-11T04:58:25.473Z,2.78
2023-03-11T05:00:53.593Z,3.22
2023-03-11T05:03:21.460Z,2.80
2023-03-11T05:05:54.935Z,2.65
2023-03-11T05:08:22.602Z,2.78
2023-03-11T05:10:51.646Z,3.30
2023-03-11T05:13:20.235Z,3.95
2023-03-11T05:15:48.156Z,3.65
2023-03-11T05:18:16.504Z,3.33
2023-03-11T05:20:44.451Z,3.50
2023-03-11T05:23:12.450Z,4.25
2023-03-11T05:25:40.023Z,4.50
2023-03-11T05:28:07.467Z,3.92
2023-03-11T05:30:35.251Z,3.70
2023-03-11T05:33:02.794Z,3.75
2023-03-11T05:35:30.501Z,3.35
2023-03-11T05:37:58.264Z,3.28
2023-03-11T05:40:25.989Z,3.78
2023-03-11T05:42:53.476Z,24.92
2023-03-11T05:45:21.825Z,20.10
2023-03-11T05:47:50.418Z,10.77
2023-03-11T05:50:18.402Z,5.63
2023-03-11T05:52:47.123Z,3.25
2023-03-11T05:55:14.584Z,3.65
2023-03-11T05:57:41.627Z,3.13
2023-03-11T06:00:12.597Z,3.70
2023-03-11T06:02:41.510Z,7.43
2023-03-11T06:05:11.084Z,3.30
2023-03-11T06:07:42.631Z,3.60
2023-03-11T06:10:10.336Z,3.67
2023-03-11T06:12:38.783Z,2.92
2023-03-11T06:15:08.222Z,3.50
2023-03-11T06:17:35.428Z,3.60
2023-03-11T06:20:02.546Z,3.65
2023-03-11T06:22:29.662Z,3.38
2023-03-11T06:24:58.821Z,3.05
2023-03-11T06:27:26.326Z,3.50
2023-03-11T06:29:55.139Z,3.53
2023-03-11T06:32:22.443Z,3.47
2023-03-11T06:34:53.240Z,3.78
2023-03-11T06:37:21.286Z,3.65
2023-03-11T06:39:51.963Z,3.85
2023-03-11T06:42:19.734Z,3.20
2023-03-11T06:44:50.508Z,3.58
2023-03-11T06:47:17.810Z,3.50
2023-03-11T06:49:44.947Z,3.40
2023-03-11T06:52:14.157Z,3.63
2023-03-11T06:54:41.668Z,3.75
2023-03-11T06:57:09.432Z,3.50
2023-03-11T06:59:37.161Z,3.72
2023-03-11T07:02:06.838Z,3.25
2023-03-11T07:04:34.137Z,3.28
2023-03-11T07:07:01.899Z,3.08
2023-03-11T07:09:30.764Z,3.45
2023-03-11T07:11:58.132Z,3.20
2023-03-11T07:14:25.660Z,3.60
2023-03-11T07:16:52.751Z,3.30
2023-03-11T07:19:22.223Z,3.33
2023-03-11T07:21:49.778Z,3.40
2023-03-11T07:24:17.747Z,4.90
2023-03-11T07:26:45.010Z,4.20
2023-03-11T07:29:12.454Z,3.67
2023-03-11T07:31:39.801Z,3.60
2023-03-11T07:34:11.627Z,4.63
2023-03-11T07:36:42.632Z,4.18
2023-03-11T07:39:14.884Z,3.85
2023-03-11T07:41:42.170Z,3.85
2023-03-11T07:44:11.019Z,4.30
2023-03-11T07:46:38.567Z,4.60
2023-03-11T07:49:05.684Z,4.50
2023-03-11T07:51:34.819Z,4.32
2023-03-11T07:54:03.129Z,4.72
2023-03-11T07:56:32.750Z,5.28
2023-03-11T07:59:03.597Z,3.95
2023-03-11T08:01:38.529Z,3.42
2023-03-11T08:04:08.321Z,3.60
2023-03-11T08:06:37.114Z,4.03
2023-03-11T08:09:07.401Z,3.33
2023-03-11T08:11:34.629Z,3.38
2023-03-11T08:14:02.109Z,6.70
2023-03-11T08:16:31.110Z,8.73
2023-03-11T08:18:58.119Z,5.70
2023-03-11T08:21:27.159Z,5.15
2023-03-11T08:23:57.843Z,5.80
2023-03-11T08:26:25.651Z,5.53
2023-03-11T08:28:53.176Z,6.22
2023-03-11T08:31:24.382Z,5.50
2023-03-11T08:33:53.356Z,3.07
2023-03-11T08:36:21.394Z,4.38
2023-03-11T08:38:50.924Z,3.78
2023-03-11T08:41:18.530Z,3.92
2023-03-11T08:43:46.058Z,4.07
2023-03-11T08:46:24.864Z,4.80
2023-03-11T08:48:52.730Z,3.95
2023-03-11T08:51:23.164Z,4.13
2023-03-11T08:53:51.541Z,4.07
2023-03-11T08:56:19.334Z,4.45
2023-03-11T08:58:47.710Z,4.57
2023-03-11T09:01:14.994Z,3.58
2023-03-11T09:03:42.251Z,3.05
2023-03-11T09:06:12.295Z,3.40
2023-03-11T09:08:39.937Z,3.15
2023-03-11T09:11:08.095Z,2.67
2023-03-11T09:13:35.881Z,2.63
2023-03-11T09:16:06.023Z,2.60
2023-03-11T09:18:33.273Z,2.40
2023-03-11T09:21:01.331Z,3.22
2023-03-11T09:23:30.710Z,3.13
2023-03-11T09:25:58.840Z,4.05
2023-03-11T09:28:25.942Z,3.70
2023-03-11T09:30:53.653Z,3.92
2023-03-11T09:33:21.323Z,3.90
2023-03-11T09:35:49.996Z,3.60
2023-03-11T09:38:17.383Z,3.70
2023-03-11T09:40:59.517Z,3.70
2023-03-11T09:43:58.669Z,3.17
2023-03-11T09:47:06.530Z,2.90
2023-03-11T09:50:13.281Z,2.85
2023-03-11T09:53:11.038Z,2.95
2023-03-11T09:55:45.215Z,2.80
2023-03-11T09:58:17.277Z,3.22
2023-03-11T10:03:25.966Z,3.17
2023-03-11T10:06:25.898Z,4.18
2023-03-11T10:08:52.980Z,4.22
2023-03-11T10:11:47.206Z,3.15
2023-03-11T10:14:17.319Z,3.25
2023-03-11T10:17:08.697Z,3.42
2023-03-11T10:20:19.035Z,3.60
2023-03-11T10:23:08.536Z,3.33
2023-03-11T10:26:10.541Z,2.92
2023-03-11T10:28:45.621Z,2.35
2023-03-11T10:31:26.793Z,2.65
2023-03-11T10:34:19.106Z,3.22
2023-03-11T10:37:11.258Z,2.90
2023-03-11T10:39:39.038Z,3.08
2023-03-11T10:42:12.429Z,2.92
2023-03-11T10:44:41.457Z,3.50
2023-03-11T10:47:23.140Z,3.10
2023-03-11T10:49:51.048Z,2.85
2023-03-11T10:52:18.190Z,3.25
2023-03-11T10:54:48.053Z,2.85
2023-03-11T10:57:34.189Z,3.28
2023-03-11T11:00:09.712Z,2.92
2023-03-11T11:02:43.691Z,3.17
2023-03-11T11:05:22.898Z,3.05
2023-03-11T11:07:53.308Z,3.80
2023-03-11T11:10:25.425Z,3.80
2023-03-11T11:13:14.384Z,4.13
2023-03-11T11:15:50.867Z,3.50
2023-03-11T11:18:30.272Z,3.30
2023-03-11T11:21:07.098Z,2.97
2023-03-11T11:23:40.057Z,3.53
2023-03-11T11:26:22.085Z,3.40
2023-03-11T11:29:09.033Z,3.58
2023-03-11T11:31:41.355Z,3.67
2023-03-11T11:34:34.173Z,3.15
2023-03-11T11:37:05.838Z,3.85
2023-03-11T11:39:53.220Z,3.47
2023-03-11T11:42:21.288Z,2.67
2023-03-11T11:44:52.087Z,3.20
2023-03-11T11:47:30.236Z,2.60
2023-03-11T11:50:01.033Z,2.60
2023-03-11T11:52:31.885Z,2.95
2023-03-11T11:55:05.508Z,4.70
2023-03-11T11:57:32.881Z,3.55
2023-03-11T12:00:00.112Z,2.97
2023-03-11T12:03:06.734Z,3.17
2023-03-11T12:05:38.484Z,2.72
2023-03-11T12:08:48.219Z,2.45
2023-03-11T12:11:44.565Z,2.83
2023-03-11T12:14:24.631Z,2.20
2023-03-11T12:16:59.687Z,2.00
2023-03-11T12:19:37.601Z,2.00
2023-03-11T12:22:14.957Z,2.30
2023-03-11T12:24:47.927Z,1.98
2023-03-11T12:27:25.537Z,2.20
2023-03-11T12:29:58.302Z,2.47
2023-03-11T12:32:42.430Z,2.38
2023-03-11T12:35:20.341Z,1.98
2023-03-11T12:38:01.585Z,1.85
2023-03-11T12:40:57.230Z,2.22
2023-03-11T12:43:36.108Z,1.60
2023-03-11T12:46:05.163Z,2.50
2023-03-11T12:48:33.783Z,1.90
2023-03-11T12:51:17.591Z,2.20
2023-03-11T12:53:49.246Z,2.25
2023-03-11T12:56:38.202Z,2.15
2023-03-11T12:59:30.438Z,1.92
2023-03-11T13:02:12.165Z,1.85
2023-03-11T13:04:57.998Z,1.90
2023-03-11T13:07:43.644Z,2.20
2023-03-11T13:10:40.199Z,2.38
2023-03-11T13:13:25.691Z,2.53
2023-03-11T13:15:53.200Z,1.85
2023-03-11T13:18:24.336Z,3.92
2023-03-11T13:20:56.197Z,2.25
2023-03-11T13:23:27.746Z,2.10
2023-03-11T13:25:54.741Z,3.53
2023-03-11T13:28:27.669Z,2.50
2023-03-11T13:31:16.198Z,3.33
2023-03-11T13:33:53.594Z,1.77
2023-03-11T13:36:44.849Z,3.63
2023-03-11T13:39:42.459Z,2.83
2023-03-11T13:42:25.147Z,2.20
2023-03-11T13:44:52.814Z,1.75
2023-03-11T13:47:21.074Z,2.90
2023-03-11T13:49:51.189Z,2.00
2023-03-11T13:52:33.697Z,2.83
2023-03-11T13:57:34.576Z,2.85
2023-03-11T14:00:17.879Z,2.58
2023-03-11T14:02:57.901Z,2.47
2023-03-11T14:05:27.696Z,2.30
2023-03-11T14:07:54.941Z,2.92
2023-03-11T14:10:23.662Z,2.20
2023-03-11T14:12:51.335Z,2.33
2023-03-11T14:15:26.959Z,2.08
2023-03-11T14:17:54.886Z,1.98
2023-03-11T14:20:25.464Z,1.90
2023-03-11T14:22:57.099Z,1.70
2023-03-11T14:25:29.039Z,1.90
2023-03-11T14:28:03.319Z,1.80
2023-03-11T14:30:34.381Z,1.55
2023-03-11T14:33:24.096Z,1.73
2023-03-11T14:35:59.962Z,1.88
2023-03-11T14:38:30.070Z,2.17
2023-03-11T14:40:59.643Z,2.15
2023-03-11T14:43:37.352Z,2.20
2023-03-11T14:46:05.862Z,2.50
2023-03-11T14:48:39.812Z,3.13
2023-03-11T14:51:20.344Z,2.58
2023-03-11T14:53:51.976Z,2.05
2023-03-11T14:56:21.918Z,1.73
2023-03-11T14:59:06.719Z,1.48
2023-03-11T15:01:40.705Z,2.75
2023-03-11T15:04:14.709Z,2.05
2023-03-11T15:06:45.892Z,2.40
2023-03-11T15:09:22.489Z,2.83
2023-03-11T15:11:58.356Z,2.65
2023-03-11T15:14:33.632Z,3.22
2023-03-11T15:17:41.138Z,2.85
2023-03-11T15:20:27.928Z,2.22
2023-03-11T15:22:58.433Z,2.33
2023-03-11T15:25:25.680Z,2.33
2023-03-11T15:27:53.020Z,2.83
2023-03-11T15:30:29.370Z,2.50
2023-03-11T15:32:58.123Z,3.00
2023-03-11T15:35:27.596Z,3.40
2023-03-11T15:38:20.874Z,3.08
2023-03-11T15:41:02.429Z,4.20
2023-03-11T15:43:33.315Z,3.20
2023-03-11T15:46:01.726Z,2.83
2023-03-11T15:48:30.156Z,2.40
2023-03-11T15:50:59.335Z,2.83
2023-03-11T15:53:30.287Z,2.70
2023-03-11T15:56:11.244Z,2.70
2023-03-11T15:58:39.753Z,2.63
2023-03-11T16:01:07.604Z,3.13
2023-03-11T16:03:34.981Z,3.42
2023-03-11T16:06:04.297Z,3.83
2023-03-11T16:08:31.913Z,3.30
2023-03-11T16:10:59.321Z,3.45
2023-03-11T16:13:26.489Z,3.53
2023-03-11T16:15:56.058Z,3.25
2023-03-11T16:18:23.168Z,3.88
2023-03-11T16:20:52.574Z,3.60
2023-03-11T16:23:30.739Z,3.22
2023-03-11T16:26:01.629Z,3.22
2023-03-11T16:28:28.714Z,3.10
2023-03-11T16:30:55.919Z,3.65
2023-03-11T16:33:23.142Z,4.05
2023-03-11T16:35:50.609Z,4.43
2023-03-11T16:38:23.524Z,4.60
2023-03-11T16:41:03.169Z,3.83
2023-03-11T16:43:32.964Z,4.00
2023-03-11T16:46:00.309Z,3.78
2023-03-11T16:48:27.912Z,3.33
2023-03-11T16:50:55.574Z,3.80
2023-03-11T16:53:23.187Z,3.50
2023-03-11T16:55:50.137Z,3.65
2023-03-11T16:58:17.365Z,3.70
2023-03-11T17:00:44.700Z,3.50
2023-03-11T17:03:18.237Z,3.10
2023-03-11T17:05:48.124Z,3.58
2023-03-11T17:08:18.513Z,3.05
2023-03-11T17:10:46.881Z,3.05
2023-03-11T17:13:17.075Z,2.97
2023-03-11T17:15:45.912Z,2.80
2023-03-11T17:18:13.770Z,3.38
2023-03-11T17:21:00.209Z,3.35
2023-03-11T17:23:29.717Z,3.83
2023-03-11T17:25:56.852Z,4.10
2023-03-11T17:28:23.878Z,4.13
2023-03-11T17:30:50.950Z,5.28
2023-03-11T17:33:18.249Z,3.55
2023-03-11T17:35:46.295Z,3.75
2023-03-11T17:38:16.319Z,3.67
2023-03-11T17:40:43.641Z,4.05
2023-03-11T17:43:11.086Z,4.47
2023-03-11T17:45:39.410Z,3.70
2023-03-11T17:48:06.556Z,3.80
2023-03-11T17:50:38.748Z,4.20
2023-03-11T17:53:06.213Z,4.72
2023-03-11T17:55:34.066Z,4.65
2023-03-11T17:58:01.402Z,4.50
2023-03-11T18:00:28.400Z,4.47
2023-03-11T18:02:55.564Z,4.03
2023-03-11T18:05:22.626Z,4.60
2023-03-11T18:07:49.658Z,3.83
2023-03-11T18:10:16.902Z,4.35
2023-03-11T18:12:45.472Z,4.03
2023-03-11T18:15:14.774Z,4.20
2023-03-11T18:17:41.822Z,4.20
2023-03-11T18:20:09.804Z,4.03
2023-03-11T18:22:38.611Z,4.20
2023-03-11T18:25:10.660Z,4.45
2023-03-11T18:27:38.037Z,4.72
2023-03-11T18:30:06.246Z,4.97
2023-03-11T18:32:33.349Z,4.80
2023-03-11T18:35:00.422Z,3.60
2023-03-11T18:37:27.489Z,4.35
2023-03-11T18:39:54.472Z,4.53
2023-03-11T18:42:24.153Z,4.75
2023-03-11T18:44:51.142Z,4.28
2023-03-11T18:47:18.267Z,4.13
2023-03-11T18:49:46.510Z,4.28
2023-03-11T18:52:13.730Z,4.63
2023-03-11T18:54:40.989Z,4.85
2023-03-11T18:57:09.366Z,4.25
2023-03-11T18:59:43.021Z,4.55
2023-03-11T19:02:11.280Z,4.50
2023-03-11T19:04:38.441Z,4.18
2023-03-11T19:07:05.568Z,4.55
2023-03-11T19:09:32.662Z,4.55
2023-03-11T19:11:59.779Z,4.53
2023-03-11T19:14:26.962Z,4.72
2023-03-11T19:16:54.207Z,4.70
2023-03-11T19:19:21.541Z,5.22
2023-03-11T19:21:48.585Z,5.07
2023-03-11T19:24:15.522Z,4.68
2023-03-11T19:26:46.271Z,4.47
2023-03-11T19:29:14.374Z,5.43
2023-03-11T19:31:43.613Z,4.97
2023-03-11T19:34:10.878Z,5.60
2023-03-11T19:36:39.202Z,6.35
2023-03-11T19:39:06.397Z,5.90
2023-03-11T19:41:33.456Z,6.35
2023-03-11T19:44:01.046Z,6.32
2023-03-11T19:46:29.498Z,6.80
2023-03-11T19:48:56.953Z,6.22
2023-03-11T19:51:26.664Z,7.88
2023-03-11T19:53:55.566Z,5.95
2023-03-11T19:56:22.584Z,8.20
2023-03-11T19:58:49.799Z,6.53
2023-03-11T20:01:18.602Z,7.28
2023-03-11T20:03:45.999Z,7.53
2023-03-11T20:06:16.439Z,5.82
2023-03-11T20:08:46.096Z,6.55
2023-03-11T20:11:13.157Z,6.90
2023-03-11T20:13:42.705Z,7.10
2023-03-11T20:16:22.749Z,7.35
2023-03-11T20:18:50.691Z,7.75
2023-03-11T20:21:17.952Z,8.02
2023-03-11T20:23:45.205Z,7.82
2023-03-11T20:26:14.380Z,7.57
2023-03-11T20:28:41.987Z,8.20
2023-03-11T20:31:10.722Z,8.82
2023-03-11T20:33:38.605Z,9.38
2023-03-11T20:36:11.167Z,8.95
2023-03-11T20:38:38.651Z,9.70
2023-03-11T20:41:06.318Z,11.55
2023-03-11T20:43:33.755Z,11.27
2023-03-11T20:46:01.251Z,10.43
2023-03-11T20:48:28.619Z,10.77
2023-03-11T20:50:59.437Z,10.27
2023-03-11T20:53:26.636Z,9.35
2023-03-11T20:55:53.716Z,8.93
2023-03-11T20:58:21.043Z,9.85
2023-03-11T21:00:48.139Z,10.80
2023-03-11T21:03:15.290Z,10.57
2023-03-11T21:05:42.404Z,9.77
2023-03-11T21:08:09.471Z,9.05
2023-03-11T21:10:36.681Z,9.18
2023-03-11T21:13:04.047Z,7.75
2023-03-11T21:15:31.484Z,7.80
2023-03-11T21:17:58.451Z,8.13
2023-03-11T21:20:25.758Z,8.05
2023-03-11T21:22:55.479Z,7.55
2023-03-11T21:25:22.671Z,8.40
2023-03-11T21:27:49.730Z,7.65
2023-03-11T21:30:16.833Z,7.57
2023-03-11T21:32:44.163Z,7.28
2023-03-11T21:35:13.809Z,6.80
2023-03-11T21:37:43.425Z,6.30
2023-03-11T21:40:11.627Z,7.10
2023-03-11T21:42:38.768Z,6.50
2023-03-11T21:45:06.649Z,6.95
2023-03-11T21:47:33.889Z,6.13
2023-03-11T21:50:01.077Z,6.10
2023-03-11T21:52:28.155Z,6.15
2023-03-11T21:54:56.570Z,5.20
2023-03-11T21:57:24.021Z,6.32
2023-03-11T21:59:51.351Z,5.28
2023-03-11T22:02:18.847Z,5.75
2023-03-11T22:04:46.163Z,5.65
2023-03-11T22:07:13.534Z,5.25
2023-03-11T22:09:40.718Z,5.28
2023-03-11T22:12:08.054Z,5.45
2023-03-11T22:14:35.246Z,5.32
2023-03-11T22:17:02.618Z,5.20
2023-03-11T22:19:29.677Z,4.90
2023-03-11T22:22:00.231Z,4.93
2023-03-11T22:24:27.383Z,6.10
2023-03-11T22:26:54.437Z,5.28
2023-03-11T22:29:21.618Z,4.53
2023-03-11T22:31:48.897Z,4.88
2023-03-11T22:34:16.205Z,4.88
2023-03-11T22:36:43.221Z,4.80
2023-03-11T22:39:10.368Z,4.30
2023-03-11T22:41:37.394Z,4.65
2023-03-11T22:44:04.538Z,4.22
2023-03-11T22:46:31.779Z,4.30
2023-03-11T22:49:01.778Z,4.47
2023-03-11T22:51:28.998Z,4.78
2023-03-11T22:53:56.171Z,5.13
2023-03-11T22:56:23.284Z,4.68
2023-03-11T22:58:50.453Z,4.50
2023-03-11T23:01:17.641Z,5.63
2023-03-11T23:03:44.897Z,3.95
2023-03-11T23:06:15.175Z,4.00
2023-03-11T23:08:42.256Z,4.05
2023-03-11T23:11:14.641Z,4.35
2023-03-11T23:13:42.917Z,4.05
2023-03-11T23:16:18.664Z,3.70
2023-03-11T23:18:47.303Z,3.80
2023-03-11T23:21:20.755Z,3.95
2023-03-11T23:23:48.200Z,4.18
2023-03-11T23:26:18.867Z,3.63
2023-03-11T23:28:46.912Z,4.53
2023-03-11T23:31:17.207Z,3.92
2023-03-11T23:33:48.639Z,3.90
2023-03-11T23:36:18.255Z,4.38
2023-03-11T23:38:45.746Z,4.07
2023-03-11T23:41:15.763Z,3.65
2023-03-11T23:43:43.593Z,3.47
2023-03-11T23:46:11.975Z,3.80
2023-03-11T23:48:41.437Z,4.28
2023-03-11T23:51:09.849Z,3.67
2023-03-11T23:53:46.484Z,4.22
2023-03-11T23:56:17.118Z,4.03
2023-03-11T23:58:45.017Z,5.00
